Time;durP1;ratioP1;P1;durP2;ratioP2;P2;SDS_P1;SDS_P2;PMS_P1;PMS_P2;Temp;Humidity;BMP_temperature;BMP_pressure;BME280_temperature;BME280_humidity;BME280_pressure;Samples;Min_cycle;Max_cycle;Signal;HPM_P1;HPM_P2
2021/10/12 00:00:28;;;;;;;;;;;;;;;-142.75;100.00;78052.81;5033788;28;19917;-77
2021/10/12 00:02:53;;;;;;;;;;;;;;;-142.75;100.00;78062.69;5033485;28;20000;-77
2021/10/12 00:05:19;;;;;;;;;;;;;;;-142.75;100.00;78062.69;5033002;28;19921;-77
2021/10/12 00:07:46;;;;;;;;;;;;;;;-142.75;100.00;78056.78;5016256;28;19960;-76
2021/10/12 00:10:12;;;;;;;;;;;;;;;-142.75;100.00;78058.72;5033837;28;19921;-77
2021/10/12 00:12:37;;;;;;;;;;;;;;;-142.75;100.00;78066.63;5033563;28;19917;-77
2021/10/12 00:15:03;;;;;;;;;;;;;;;-142.75;100.00;78068.59;5031810;28;19968;-77
2021/10/12 00:17:28;;;;;;;;;;;;;;;-142.75;100.00;78066.63;5033313;28;19925;-78
2021/10/12 00:19:53;;;;;;;;;;;;;;;-142.75;100.00;78052.81;5032161;28;20460;-77
2021/10/12 00:22:18;;;;;;;;;;;;;;;-142.75;100.00;78052.81;5033513;28;19924;-77
2021/10/12 00:24:43;;;;;;;;;;;;;;;-142.75;100.00;78054.81;5032976;28;19924;-76
2021/10/12 00:27:09;;;;;;;;;;;;;;;-142.75;100.00;78037.06;5032988;28;19924;-77
2021/10/12 00:29:34;;;;;;;;;;;;;;;-142.75;100.00;78031.16;5015253;28;19925;-77
2021/10/12 00:31:59;;;;;;;;;;;;;;;-142.75;100.00;78023.28;5033189;28;19925;-77
2021/10/12 00:34:24;;;;;;;;;;;;;;;-142.75;100.00;78029.19;5014819;28;19917;-76
2021/10/12 00:36:49;;;;;;;;;;;;;;;-142.75;100.00;78017.38;5015256;28;20001;-76
2021/10/12 00:39:14;;;;;;;;;;;;;;;-142.75;100.00;78017.38;5033522;28;19931;-77
2021/10/12 00:41:40;;;;;;;;;;;;;;;-142.75;100.00;78027.22;5032802;28;19917;-78
2021/10/12 00:44:06;;;;;;;;;;;;;;;-142.75;100.00;78031.16;5033224;28;20605;-77
2021/10/12 00:46:31;;;;;;;;;;;;;;;-142.75;100.00;78027.22;5031311;28;19956;-76
2021/10/12 00:48:57;;;;;;;;;;;;;;;-142.75;100.00;78039.03;5032869;28;20401;-78
2021/10/12 00:51:22;;;;;;;;;;;;;;;-142.75;100.00;78042.97;5033719;28;20378;-78
2021/10/12 00:53:48;;;;;;;;;;;;;;;-142.75;100.00;78046.91;5031787;28;19924;-77
2021/10/12 00:56:13;;;;;;;;;;;;;;;-142.75;100.00;78062.69;5031297;28;19917;-76
2021/10/12 00:58:39;;;;;;;;;;;;;;;-142.75;100.00;78062.69;5031460;28;20386;-77
2021/10/12 01:01:05;;;;;;;;;;;;;;;-142.75;100.00;78066.63;5014430;28;19992;-77
2021/10/12 01:03:30;;;;;;;;;;;;;;;-142.75;100.00;78072.53;5014992;28;19916;-78
2021/10/12 01:05:56;;;;;;;;;;;;;;;-142.75;100.00;78088.28;5032425;28;19924;-78
2021/10/12 01:08:21;;;;;;;;;;;;;;;-142.75;100.00;78098.13;5015713;28;19917;-76
2021/10/12 01:10:46;;;;;;;;;;;;;;;-142.75;100.00;78090.25;5032658;28;19949;-78
2021/10/12 01:13:11;;;;;;;;;;;;;;;-142.75;100.00;78092.22;5031196;28;19917;-77
2021/10/12 01:15:37;;;;;;;;;;;;;;;-142.75;100.00;78088.28;5014072;28;19917;-77
2021/10/12 01:18:02;;;;;;;;;;;;;;;-142.75;100.00;78086.31;5031012;28;19917;-77
2021/10/12 01:20:27;;;;;;;;;;;;;;;-142.75;100.00;78074.50;5032297;28;19921;-77
2021/10/12 01:22:54;;;;;;;;;;;;;;;-142.75;100.00;78066.63;5014780;28;19948;-77
2021/10/12 01:25:19;;;;;;;;;;;;;;;-142.75;100.00;78064.66;5013897;28;19921;-78
2021/10/12 01:27:44;;;;;;;;;;;;;;;-142.75;100.00;78060.72;5014473;28;19917;-77
2021/10/12 01:30:10;;;;;;;;;;;;;;;-142.75;100.00;78058.72;5013919;28;19986;-78
2021/10/12 01:32:36;;;;;;;;;;;;;;;-142.75;100.00;78054.81;5014220;28;20089;-77
2021/10/12 01:35:02;;;;;;;;;;;;;;;-142.75;100.00;78048.88;5031611;28;20023;-77
2021/10/12 01:37:28;;;;;;;;;;;;;;;-142.75;100.00;78042.97;5032013;28;19972;-77
2021/10/12 01:39:53;;;;;;;;;;;;;;;-142.75;100.00;78035.09;5032806;28;20387;-77
2021/10/12 01:42:18;;;;;;;;;;;;;;;-142.75;100.00;78037.06;5031984;28;19917;-77
2021/10/12 01:44:44;;;;;;;;;;;;;;;-142.75;100.00;78039.03;5031194;28;19921;-77
2021/10/12 01:47:10;;;;;;;;;;;;;;;-142.75;100.00;78033.13;5031526;28;20492;-77
2021/10/12 01:49:35;;;;;;;;;;;;;;;-142.75;100.00;78027.22;5014043;28;19917;-77
2021/10/12 01:52:00;;;;;;;;;;;;;;;-142.75;100.00;78025.25;5031359;28;19924;-77
2021/10/12 01:54:25;;;;;;;;;;;;;;;-142.75;100.00;78021.31;5014077;28;19978;-76
2021/10/12 01:56:51;;;;;;;;;;;;;;;-142.75;100.00;78007.53;5031818;28;19952;-77
2021/10/12 01:59:17;;;;;;;;;;;;;;;-142.75;100.00;78015.41;5013968;28;19995;-78
2021/10/12 02:01:42;;;;;;;;;;;;;;;-142.75;100.00;78015.41;5030715;28;19960;-76
2021/10/12 02:04:08;;;;;;;;;;;;;;;-142.75;100.00;78033.13;5013532;28;19924;-77
2021/10/12 02:06:33;;;;;;;;;;;;;;;-142.75;100.00;78039.03;5031463;28;19928;-77
2021/10/12 02:08:59;;;;;;;;;;;;;;;-142.75;100.00;78023.28;5014456;28;19925;-77
2021/10/12 02:11:24;;;;;;;;;;;;;;;-142.75;100.00;78019.34;5012594;28;20002;-78
2021/10/12 02:13:49;;;;;;;;;;;;;;;-142.75;100.00;78007.53;5031458;28;20318;-77
2021/10/12 02:16:14;;;;;;;;;;;;;;;-142.75;100.00;78005.56;5031742;28;19924;-77
2021/10/12 02:18:39;;;;;;;;;;;;;;;-142.75;100.00;78001.63;5031410;28;20401;-77
2021/10/12 02:21:05;;;;;;;;;;;;;;;-142.75;100.00;77995.72;5031404;28;20009;-78
2021/10/12 02:23:30;;;;;;;;;;;;;;;-142.75;100.00;77999.66;5031896;28;19924;-77
2021/10/12 02:25:55;;;;;;;;;;;;;;;-142.75;100.00;77993.75;5013096;28;19925;-77
2021/10/12 02:28:20;;;;;;;;;;;;;;;-142.75;100.00;77993.75;5031375;28;20445;-77
2021/10/12 02:30:45;;;;;;;;;;;;;;;-142.75;100.00;77985.88;5031117;28;19925;-77
2021/10/12 02:33:11;;;;;;;;;;;;;;;-142.75;100.00;77981.94;5031208;28;19917;-78
2021/10/12 02:35:36;;;;;;;;;;;;;;;-142.75;100.00;77983.91;5030616;28;20397;-78
2021/10/12 02:38:01;;;;;;;;;;;;;;;-142.75;100.00;77979.97;5030140;28;19956;-77
2021/10/12 02:40:26;;;;;;;;;;;;;;;-142.75;100.00;77972.09;5013844;28;19917;-77
2021/10/12 02:42:51;;;;;;;;;;;;;;;-142.75;100.00;77968.16;5030833;28;20349;-76
2021/10/12 02:45:17;;;;;;;;;;;;;;;-142.75;100.00;77970.13;5029198;28;20382;-77
2021/10/12 02:47:42;;;;;;;;;;;;;;;-142.75;100.00;77964.22;5030315;28;19917;-76
2021/10/12 02:50:08;;;;;;;;;;;;;;;-142.75;100.00;77960.28;5012990;28;19922;-77
2021/10/12 02:52:34;;;;;;;;;;;;;;;-142.75;100.00;77964.22;5013528;28;19917;-78
2021/10/12 02:54:59;;;;;;;;;;;;;;;-142.75;100.00;77960.28;5012293;28;20298;-77
2021/10/12 02:57:24;;;;;;;;;;;;;;;-142.75;100.00;77950.44;5013012;28;19945;-76
2021/10/12 02:59:49;;;;;;;;;;;;;;;-142.75;100.00;77954.38;5012697;28;21210;-77
2021/10/12 03:02:15;;;;;;;;;;;;;;;-142.75;100.00;77938.63;5031090;28;19921;-77
2021/10/12 03:04:40;;;;;;;;;;;;;;;-142.75;100.00;77936.66;5030793;28;19917;-77
2021/10/12 03:07:05;;;;;;;;;;;;;;;-142.75;100.00;77936.66;5030515;28;19952;-78
2021/10/12 03:09:30;;;;;;;;;;;;;;;-142.75;100.00;77924.84;5013383;28;19916;-77
2021/10/12 03:11:55;;;;;;;;;;;;;;;-142.75;100.00;77932.72;5013033;28;19921;-78
2021/10/12 03:14:21;;;;;;;;;;;;;;;-142.75;100.00;77948.47;5032764;28;20378;-78
2021/10/12 03:16:46;;;;;;;;;;;;;;;-142.75;100.00;77928.78;5033204;28;19921;-78
2021/10/12 03:19:12;;;;;;;;;;;;;;;-142.75;100.00;77924.84;5017008;28;19917;-77
2021/10/12 03:21:43;;;;;;;;;;;;;;;-142.75;100.00;77922.88;5034132;28;19940;-78
2021/10/12 03:24:08;;;;;;;;;;;;;;;-142.75;100.00;77932.72;5034945;28;20306;-78
2021/10/12 03:26:33;;;;;;;;;;;;;;;-142.75;100.00;77924.84;5034960;28;19921;-78
2021/10/12 03:28:59;;;;;;;;;;;;;;;-142.75;100.00;77928.78;5033493;28;19924;-78
2021/10/12 03:31:24;;;;;;;;;;;;;;;-142.75;100.00;77920.91;5016998;28;19921;-78
2021/10/12 03:33:49;;;;;;;;;;;;;;;-142.75;100.00;77907.09;5017164;28;19924;-77
2021/10/12 03:36:17;;;;;;;;;;;;;;;-142.75;100.00;77903.16;5034997;28;19960;-77
2021/10/12 03:38:42;;;;;;;;;;;;;;;-142.75;100.00;77905.13;5017832;28;19924;-78
2021/10/12 03:41:07;;;;;;;;;;;;;;;-142.75;100.00;77905.13;5034585;28;19917;-78
2021/10/12 03:43:33;;;;;;;;;;;;;;;-142.75;100.00;77905.13;5034434;28;19928;-77
2021/10/12 03:45:58;;;;;;;;;;;;;;;-142.75;100.00;77903.16;5035509;28;20012;-78
2021/10/12 03:48:23;;;;;;;;;;;;;;;-142.75;100.00;77893.31;5017066;28;19917;-78
2021/10/12 03:50:48;;;;;;;;;;;;;;;-142.75;100.00;77895.28;5016360;28;19921;-79
2021/10/12 03:53:14;;;;;;;;;;;;;;;-142.75;100.00;77889.38;5016563;28;19925;-78
2021/10/12 03:55:39;;;;;;;;;;;;;;;-142.75;100.00;77879.53;5032596;28;19924;-78
2021/10/12 03:58:04;;;;;;;;;;;;;;;-142.75;100.00;77875.59;5033991;28;19971;-79
2021/10/12 04:00:29;;;;;;;;;;;;;;;-142.75;100.00;77881.50;5016505;28;20014;-79
2021/10/12 04:02:54;;;;;;;;;;;;;;;-142.75;100.00;77877.56;5016795;28;19917;-79
2021/10/12 04:05:20;;;;;;;;;;;;;;;-142.75;100.00;77889.38;5033545;28;19917;-79
2021/10/12 04:07:46;;;;;;;;;;;;;;;-142.75;100.00;77889.38;5016495;28;20573;-78
2021/10/12 04:10:12;;;;;;;;;;;;;;;-142.75;100.00;77877.56;5033161;28;20004;-77
2021/10/12 04:12:37;;;;;;;;;;;;;;;-142.75;100.00;77865.75;5015840;28;19917;-79
2021/10/12 04:15:03;;;;;;;;;;;;;;;-142.75;100.00;77850.00;5015588;28;19917;-78
2021/10/12 04:17:28;;;;;;;;;;;;;;;-142.75;100.00;77848.03;5033690;28;20412;-78
2021/10/12 04:19:53;;;;;;;;;;;;;;;-142.75;100.00;77840.16;5033881;28;19916;-79
2021/10/12 04:22:18;;;;;;;;;;;;;;;-142.75;100.00;77832.28;5034033;28;19951;-78
2021/10/12 04:24:43;;;;;;;;;;;;;;;-142.75;100.00;77822.44;5014966;28;19988;-79
2021/10/12 04:27:09;;;;;;;;;;;;;;;-142.75;100.00;77818.50;5033887;28;19917;-79
2021/10/12 04:29:34;;;;;;;;;;;;;;;-142.75;100.00;77814.56;5032078;28;20413;-79
2021/10/12 04:31:59;;;;;;;;;;;;;;;-142.75;100.00;77804.72;5015901;28;20034;-78
2021/10/12 04:34:27;;;;;;;;;;;;;;;-142.75;100.00;77810.63;5033323;28;19917;-79
2021/10/12 04:36:52;;;;;;;;;;;;;;;-142.75;100.00;77804.72;5032365;28;19917;-79
2021/10/12 04:39:17;;;;;;;;;;;;;;;-142.75;100.00;77798.81;5034133;28;19917;-79
2021/10/12 04:41:42;;;;;;;;;;;;;;;-142.75;100.00;77790.94;5015582;28;19927;-79
2021/10/12 04:44:09;;;;;;;;;;;;;;;-142.75;100.00;77790.94;5031938;28;20294;-77
2021/10/12 04:46:35;;;;;;;;;;;;;;;-142.75;100.00;77787.00;5015570;28;19967;-79
2021/10/12 04:49:00;;;;;;;;;;;;;;;-142.75;100.00;77787.00;5015435;28;19921;-78
2021/10/12 04:51:25;;;;;;;;;;;;;;;-142.75;100.00;77779.13;5015493;28;19925;-79
2021/10/12 04:53:50;;;;;;;;;;;;;;;-142.75;100.00;77783.06;5033012;28;19945;-79
2021/10/12 04:56:16;;;;;;;;;;;;;;;-142.75;100.00;77775.19;5032161;28;19925;-79
2021/10/12 04:58:41;;;;;;;;;;;;;;;-142.75;100.00;77775.19;5015407;28;20391;-78
2021/10/12 05:01:06;;;;;;;;;;;;;;;-142.75;100.00;77767.31;5032932;28;19917;-79
2021/10/12 05:03:31;;;;;;;;;;;;;;;-142.75;100.00;77767.31;5015467;28;19924;-79
2021/10/12 05:05:57;;;;;;;;;;;;;;;-142.75;100.00;77767.31;5031522;28;19917;-79
2021/10/12 05:08:22;;;;;;;;;;;;;;;-142.75;100.00;77767.31;5031636;28;19924;-79
2021/10/12 05:10:47;;;;;;;;;;;;;;;-142.75;100.00;77763.38;5032773;28;20521;-79
2021/10/12 05:13:12;;;;;;;;;;;;;;;-142.75;100.00;77751.56;5015014;28;19917;-78
2021/10/12 05:15:45;;;;;;;;;;;;;;;-142.75;100.00;77751.56;5032319;28;20555;-79
2021/10/12 05:18:17;;;;;;;;;;;;;;;-142.75;100.00;77751.56;5015337;28;20446;-80
2021/10/12 05:20:42;;;;;;;;;;;;;;;-142.75;100.00;77759.44;5031406;28;19917;-79
2021/10/12 05:23:07;;;;;;;;;;;;;;;-142.75;100.00;77753.53;5032783;28;19932;-79
2021/10/12 05:25:32;;;;;;;;;;;;;;;-142.75;100.00;77751.56;5031444;28;19987;-76
2021/10/12 05:27:58;;;;;;;;;;;;;;;-142.75;100.00;77745.66;5033460;28;19917;-80
2021/10/12 05:30:24;;;;;;;;;;;;;;;-142.75;100.00;77755.50;5014347;28;19929;-78
2021/10/12 05:32:49;;;;;;;;;;;;;;;-142.75;100.00;77751.56;5032167;28;19940;-78
2021/10/12 05:35:14;;;;;;;;;;;;;;;-142.75;100.00;77749.59;5013610;28;19967;-79
2021/10/12 05:37:39;;;;;;;;;;;;;;;-142.75;100.00;77745.66;5029330;28;19917;-79
2021/10/12 05:40:05;;;;;;;;;;;;;;;-142.75;100.00;77743.69;5014560;28;19917;-77
2021/10/12 05:42:30;;;;;;;;;;;;;;;-142.75;100.00;77731.88;5030850;28;20331;-78
2021/10/12 05:44:55;;;;;;;;;;;;;;;-142.75;100.00;77727.94;5031291;28;20406;-79
2021/10/12 05:47:20;;;;;;;;;;;;;;;-142.75;100.00;77712.16;5032098;28;19917;-78
2021/10/12 05:49:46;;;;;;;;;;;;;;;-142.75;100.00;77686.56;5032715;28;19929;-79
2021/10/12 05:52:14;;;;;;;;;;;;;;;-142.75;100.00;77688.53;5031155;28;19924;-79
2021/10/12 05:54:46;;;;;;;;;;;;;;;-142.75;100.00;77688.53;5031885;28;19925;-78
2021/10/12 05:57:19;;;;;;;;;;;;;;;-142.75;100.00;77684.59;5014691;28;19928;-77
2021/10/12 05:59:45;;;;;;;;;;;;;;;-142.75;100.00;77686.56;5033248;28;19917;-78
2021/10/12 06:02:10;;;;;;;;;;;;;;;-142.75;100.00;77694.44;5032650;28;19917;-78
2021/10/12 06:04:35;;;;;;;;;;;;;;;-142.75;100.00;77682.63;5033052;28;20001;-79
2021/10/12 06:07:01;;;;;;;;;;;;;;;-142.75;100.00;77686.56;5032418;28;19917;-79
2021/10/12 06:09:26;;;;;;;;;;;;;;;-142.75;100.00;77688.53;5032077;28;19928;-78
2021/10/12 06:11:52;;;;;;;;;;;;;;;-142.75;100.00;77680.66;5014263;28;19921;-78
2021/10/12 06:14:17;;;;;;;;;;;;;;;-142.75;100.00;77676.72;5032074;28;19917;-78
2021/10/12 06:16:42;;;;;;;;;;;;;;;-142.75;100.00;77672.78;5030885;28;20326;-79
2021/10/12 06:19:07;;;;;;;;;;;;;;;-142.75;100.00;77674.75;5032370;28;19917;-77
2021/10/12 06:21:32;;;;;;;;;;;;;;;-142.75;100.00;77668.84;5032247;28;20063;-78
2021/10/12 06:23:57;;;;;;;;;;;;;;;-142.75;100.00;77668.84;5030550;28;19960;-77
2021/10/12 06:26:23;;;;;;;;;;;;;;;-142.75;100.00;77666.88;5014020;28;19917;-78
2021/10/12 06:28:48;;;;;;;;;;;;;;;-142.75;100.00;77668.84;5013988;28;19923;-78
2021/10/12 06:31:13;;;;;;;;;;;;;;;-142.75;100.00;77668.84;5031776;28;19925;-77
2021/10/12 06:33:39;;;;;;;;;;;;;;;-142.75;100.00;77666.88;5031489;28;19917;-77
2021/10/12 06:36:04;;;;;;;;;;;;;;;-142.75;100.00;77657.03;5031460;28;19963;-78
2021/10/12 06:38:29;;;;;;;;;;;;;;;-142.75;100.00;77655.06;5031669;28;20442;-77
2021/10/12 06:40:54;;;;;;;;;;;;;;;-142.75;100.00;77660.97;5031609;28;20383;-78
2021/10/12 06:43:20;;;;;;;;;;;;;;;-142.75;100.00;77659.00;5030668;28;19970;-79
2021/10/12 06:45:45;;;;;;;;;;;;;;;-142.75;100.00;77651.13;5031590;28;19935;-78
2021/10/12 06:48:10;;;;;;;;;;;;;;;-142.75;100.00;77651.13;5031415;28;20333;-78
2021/10/12 06:50:35;;;;;;;;;;;;;;;-142.75;100.00;77637.34;5031724;28;20455;-78
2021/10/12 06:53:02;;;;;;;;;;;;;;;-142.75;100.00;77633.41;5031501;28;19917;-78
2021/10/12 06:55:27;;;;;;;;;;;;;;;-142.75;100.00;77623.56;5013648;28;19917;-78
2021/10/12 06:57:52;;;;;;;;;;;;;;;-142.75;100.00;77611.75;5030434;28;19924;-78
2021/10/12 07:00:18;;;;;;;;;;;;;;;-142.75;100.00;77603.88;5030650;28;19924;-78
2021/10/12 07:02:44;;;;;;;;;;;;;;;-142.75;100.00;77601.91;5014146;28;19917;-78
2021/10/12 07:05:10;;;;;;;;;;;;;;;-142.75;100.00;77590.09;5013818;28;19959;-78
2021/10/12 07:07:35;;;;;;;;;;;;;;;-142.75;100.00;77586.16;5032494;28;19956;-78
2021/10/12 07:10:01;;;;;;;;;;;;;;;-142.75;100.00;77574.34;5014273;28;19957;-78
2021/10/12 07:12:27;;;;;;;;;;;;;;;-142.75;100.00;77556.63;5032102;28;19948;-79
2021/10/12 07:14:52;;;;;;;;;;;;;;;-142.75;100.00;77542.84;5013524;28;19917;-78
2021/10/12 07:17:17;;;;;;;;;;;;;;;-142.75;100.00;77552.69;5031627;28;19917;-78
2021/10/12 07:19:42;;;;;;;;;;;;;;;-142.75;100.00;77564.50;5013416;28;20004;-77
2021/10/12 07:22:07;;;;;;;;;;;;;;;-142.75;100.00;77576.31;5031281;28;19960;-77
2021/10/12 07:24:33;;;;;;;;;;;;;;;-142.75;100.00;77588.13;5030028;28;19927;-79
2021/10/12 07:26:58;;;;;;;;;;;;;;;-142.75;100.00;77594.03;5031186;28;20429;-78
2021/10/12 07:29:23;;;;;;;;;;;;;;;-142.75;100.00;77596.00;5030474;28;19936;-79
2021/10/12 07:31:49;;;;;;;;;;;;;;;-142.75;100.00;77588.13;5012303;28;19929;-78
2021/10/12 07:34:14;;;;;;;;;;;;;;;-142.75;100.00;77572.38;5029710;28;19917;-77
2021/10/12 07:36:39;;;;;;;;;;;;;;;-142.75;100.00;77572.38;5029455;28;20306;-76
2021/10/12 07:39:05;;;;;;;;;;;;;;;-142.75;100.00;77558.59;5012274;28;20075;-78
2021/10/12 07:41:30;;;;;;;;;;;;;;;-142.75;100.00;77558.59;5028733;28;20310;-78
2021/10/12 07:43:56;;;;;;;;;;;;;;;-142.75;100.00;77548.75;5028515;28;19928;-78
2021/10/12 07:46:21;;;;;;;;;;;;;;;-142.75;100.00;77546.78;5012007;28;19936;-77
2021/10/12 07:48:46;;;;;;;;;;;;;;;-142.75;100.00;77538.91;5029692;28;20357;-77
2021/10/12 07:51:11;;;;;;;;;;;;;;;-142.75;100.00;77542.84;5029592;28;19927;-78
2021/10/12 07:53:38;;;;;;;;;;;;;;;-142.75;100.00;77538.91;5029843;28;19917;-77
2021/10/12 07:56:07;;;;;;;;;;;;;;;-142.75;100.00;77519.22;5028338;28;19917;-77
2021/10/12 07:58:33;;;;;;;;;;;;;;;-142.75;100.00;77499.53;5030043;28;19975;-78
2021/10/12 08:00:58;;;;;;;;;;;;;;;-142.75;100.00;77485.75;5032514;28;19921;-77
2021/10/12 08:03:23;;;;;;;;;;;;;;;-142.75;100.00;77471.97;5015623;28;19948;-77
2021/10/12 08:05:48;;;;;;;;;;;;;;;-142.75;100.00;77436.50;5032708;28;19964;-78
2021/10/12 08:08:13;;;;;;;;;;;;;;;-142.75;100.00;77416.81;5015999;28;19971;-78
2021/10/12 08:10:39;;;;;;;;;;;;;;;-142.75;100.00;77395.16;5032150;28;19921;-78
2021/10/12 08:13:07;;;;;;;;;;;;;;;-142.75;100.00;77393.19;5032341;28;20013;-77
2021/10/12 08:15:33;;;;;;;;;;;;;;;-142.75;100.00;77395.16;5033044;28;19917;-77
2021/10/12 08:17:59;;;;;;;;;;;;;;;-142.75;100.00;77399.09;5030859;28;20294;-78
2021/10/12 08:20:24;;;;;;;;;;;;;;;-142.75;100.00;77373.50;5011806;28;19929;-78
2021/10/12 08:22:50;;;;;;;;;;;;;;;-142.75;100.00;77351.84;5033349;28;19913;-78
2021/10/12 08:25:15;;;;;;;;;;;;;;;-142.75;100.00;77214.03;5015288;28;19920;-79
2021/10/12 08:27:41;;;;;;;;;;;;;;;-142.75;100.00;77086.06;5033797;28;20244;-80
2021/10/12 08:30:07;;;;;;;;;;;;;;;-142.75;100.00;76977.78;5015491;28;19920;-78
2021/10/12 08:32:33;;;;;;;;;;;;;;;-142.75;100.00;76845.88;5033193;28;19925;-78
2021/10/12 08:34:58;;;;;;;;;;;;;;;-142.75;92.93;76708.09;5015871;28;19913;-79
2021/10/12 08:37:23;;;;;;;;;;;;;;;-142.75;85.96;76576.19;5034127;28;19924;-79
2021/10/12 08:39:48;;;;;;;;;;;;;;;-142.75;79.14;76440.38;5015658;28;19936;-80
2021/10/12 08:42:29;;;;;;;;;;;;;;;-142.75;79.74;76369.50;5033722;28;20605;-79
2021/10/12 08:45:02;;;;;;;;;;;;;;;-142.75;75.22;76341.97;5032593;28;19917;-79
2021/10/12 08:47:29;;;;;;;;;;;;;;;-142.75;69.29;76294.72;5015421;28;19929;-78
2021/10/12 08:49:55;;;;;;;;;;;;;;;-142.75;66.91;76359.66;5032828;28;19928;-78
2021/10/12 08:52:21;;;;;;;;;;;;;;;-142.75;67.92;76458.09;5013980;28;20279;-77
2021/10/12 08:54:47;;;;;;;;;;;;;;;-142.75;71.19;76613.59;5012139;28;19928;-76
2021/10/12 08:57:25;;;;;;;;;;;;;;;-142.75;75.37;76737.63;5012706;28;19921;-77
2021/10/12 08:59:52;;;;;;;;;;;;;;;-142.75;81.92;76857.69;5030809;28;19917;-77
2021/10/12 09:02:18;;;;;;;;;;;;;;;-142.75;84.77;76926.59;5032430;28;20015;-77
2021/10/12 09:04:43;;;;;;;;;;;;;;;-142.75;88.39;77007.31;5032848;28;19917;-77
2021/10/12 09:07:16;;;;;;;;;;;;;;;-142.75;93.19;77068.34;5033091;28;19917;-77
2021/10/12 09:09:41;;;;;;;;;;;;;;;-142.75;98.58;77050.63;5014591;28;19971;-77
2021/10/12 09:12:06;;;;;;;;;;;;;;;-142.75;96.49;77027.00;5015146;28;19916;-77
2021/10/12 09:14:32;;;;;;;;;;;;;;;-142.75;94.98;77032.91;5032498;28;19917;-77
2021/10/12 09:17:05;;;;;;;;;;;;;;;-142.75;96.31;77048.66;5032787;28;19917;-77
2021/10/12 09:19:31;;;;;;;;;;;;;;;-142.75;99.15;76995.50;5031498;28;19917;-76
2021/10/12 09:21:57;;;;;;;;;;;;;;;-142.75;92.90;76960.06;5032728;28;20552;-77
2021/10/12 09:24:23;;;;;;;;;;;;;;;-142.75;87.32;76869.50;5032389;28;20008;-78
2021/10/12 09:27:14;;;;;;;;;;;;;;;-142.75;84.95;76859.66;5032535;28;19996;-77
2021/10/12 09:29:47;;;;;;;;;;;;;;;-142.75;91.75;76723.84;5032552;28;20307;-77
2021/10/12 09:32:12;;;;;;;;;;;;;;;-142.75;78.34;76538.78;5014980;28;19917;-78
2021/10/12 09:34:38;;;;;;;;;;;;;;;-142.75;70.52;76401.00;5031252;28;19917;-78
2021/10/12 09:37:04;;;;;;;;;;;;;;;-142.75;65.22;76278.97;5032677;28;19917;-76
2021/10/12 09:39:32;;;;;;;;;;;;;;;-142.75;63.79;76280.94;5032648;28;20004;-77
2021/10/12 09:41:58;;;;;;;;;;;;;;;-142.75;61.37;76338.03;5014796;28;19928;-78
2021/10/12 09:44:24;;;;;;;;;;;;;;;-142.75;66.02;76436.44;5031931;28;19964;-77
2021/10/12 09:46:50;;;;;;;;;;;;;;;-142.75;69.24;76601.78;5070782;22;19960;-77
2021/10/12 09:49:18;;;;;;;;;;;;;;;-142.75;74.04;76749.44;5051836;28;19928;-78
2021/10/12 09:52:03;;;;;;;;;;;;;;;-142.75;79.06;76818.31;5034414;28;19920;-77
2021/10/12 09:54:30;;;;;;;;;;;;;;;-142.75;82.29;76836.03;5040512;28;19917;-79
2021/10/12 09:56:56;;;;;;;;;;;;;;;-142.75;85.83;76727.78;5045170;28;19917;-79
2021/10/12 09:59:21;;;;;;;;;;;;;;;-142.75;80.84;76759.28;5043542;28;19923;-78
2021/10/12 10:01:47;;;;;;;;;;;;;;;-142.75;83.46;76857.69;5045063;28;19928;-80
2021/10/12 10:04:15;;;;;;;;;;;;;;;-142.75;90.24;76979.75;5043824;28;19999;-79
2021/10/12 10:06:41;;;;;;;;;;;;;;;-142.75;97.05;77042.75;5043520;28;19917;-82
2021/10/12 10:09:08;;;;;;;;;;;;;;;-142.75;100.00;77088.03;5044777;28;20394;-78
2021/10/12 10:11:34;;;;;;;;;;;;;;;-142.75;100.00;77101.81;5045188;28;19927;-80
2021/10/12 10:14:01;;;;;;;;;;;;;;;-142.75;100.00;77121.50;5045314;28;19917;-80
2021/10/12 10:16:26;;;;;;;;;;;;;;;-142.75;100.00;77123.47;5021186;28;19925;-78
2021/10/12 10:18:52;;;;;;;;;;;;;;;-142.75;100.00;77149.06;5039038;28;20393;-81
2021/10/12 10:21:17;;;;;;;;;;;;;;;-142.75;100.00;77186.47;5024910;28;20377;-82
2021/10/12 10:23:49;;;;;;;;;;;;;;;-142.75;100.00;77229.78;5024451;28;19924;-82
2021/10/12 10:26:21;;;;;;;;;;;;;;;-142.75;100.00;77259.31;5026508;28;19917;-83
2021/10/12 10:28:46;;;;;;;;;;;;;;;-142.75;100.00;77279.00;5024300;28;19944;-83
2021/10/12 10:31:12;;;;;;;;;;;;;;;-142.75;100.00;77267.19;5029600;28;19964;-84
2021/10/12 10:33:37;;;;;;;;;;;;;;;-142.75;100.00;77259.31;5029326;28;19920;-82
2021/10/12 10:36:04;;;;;;;;;;;;;;;-142.75;100.00;77243.56;5025613;28;19966;-85
2021/10/12 10:38:32;;;;;;;;;;;;;;;-142.75;100.00;77219.94;5026328;28;19917;-82
2021/10/12 10:41:03;;;;;;;;;;;;;;;-142.75;100.00;77180.56;5029725;28;19932;-82
2021/10/12 10:43:47;;;;;;;;;;;;;;;-142.75;100.00;77131.34;5032437;28;20387;-81
2021/10/12 10:46:33;;;;;;;;;;;;;;;-142.75;100.00;77017.16;5041163;28;19917;-81
2021/10/12 10:49:07;;;;;;;;;;;;;;;-142.75;100.00;76975.81;5032486;28;19921;-81
2021/10/12 10:51:49;;;;;;;;;;;;;;;-142.75;100.00;76987.63;5025482;28;19928;-81
2021/10/12 10:54:32;;;;;;;;;;;;;;;-142.75;100.00;76987.63;5038562;28;19924;-80
2021/10/12 10:57:18;;;;;;;;;;;;;;;-142.75;100.00;77040.78;5030821;28;20023;-82
2021/10/12 10:59:44;;;;;;;;;;;;;;;-142.75;100.00;77019.13;5026948;28;20454;-81
2021/10/12 11:02:33;;;;;;;;;;;;;;;-142.75;100.00;77054.56;5040208;28;19917;-81
2021/10/12 11:04:58;;;;;;;;;;;;;;;-142.75;100.00;77078.19;5027559;28;20000;-82
2021/10/12 11:07:24;;;;;;;;;;;;;;;-142.75;100.00;77127.41;5025115;28;19975;-82
2021/10/12 11:09:50;;;;;;;;;;;;;;;-142.75;100.00;77153.00;5028317;28;20027;-81
2021/10/12 11:12:20;;;;;;;;;;;;;;;-142.75;100.00;77180.56;5023298;28;19960;-81
2021/10/12 11:14:46;;;;;;;;;;;;;;;-142.75;100.00;77212.06;5025779;28;19921;-77
2021/10/12 11:17:11;;;;;;;;;;;;;;;-142.75;100.00;77192.38;5025505;28;19967;-81
2021/10/12 11:19:56;;;;;;;;;;;;;;;-142.75;100.00;77160.88;5026027;28;19920;-81
2021/10/12 11:22:21;;;;;;;;;;;;;;;-142.75;100.00;77153.00;5044538;28;20414;-80
2021/10/12 11:24:47;;;;;;;;;;;;;;;-142.75;100.00;77184.50;5023438;28;19921;-80
2021/10/12 11:27:12;;;;;;;;;;;;;;;-142.75;100.00;77188.44;5024041;28;19923;-82
2021/10/12 11:29:38;;;;;;;;;;;;;;;-142.75;100.00;77174.66;5015134;28;19932;-82
2021/10/12 11:32:03;;;;;;;;;;;;;;;-142.75;100.00;77172.69;5022429;28;20416;-82
2021/10/12 11:34:28;;;;;;;;;;;;;;;-142.75;100.00;77170.72;5021076;28;19916;-81
2021/10/12 11:37:05;;;;;;;;;;;;;;;-142.75;100.00;77139.22;5039104;28;20064;-82
2021/10/12 11:39:30;;;;;;;;;;;;;;;-142.75;100.00;77119.53;5057269;28;19964;-82
2021/10/12 11:41:59;;;;;;;;;;;;;;;-142.75;100.00;77101.81;5029463;28;20414;-81
2021/10/12 11:44:24;;;;;;;;;;;;;;;-142.75;100.00;77082.13;5057027;28;20293;-83
2021/10/12 11:46:50;;;;;;;;;;;;;;;-142.75;100.00;77070.31;5026922;28;19917;-80
2021/10/12 11:49:17;;;;;;;;;;;;;;;-142.75;100.00;77058.50;5021111;28;19928;-81
2021/10/12 11:51:45;;;;;;;;;;;;;;;-142.75;100.00;77060.47;5043767;28;19921;-81
2021/10/12 11:54:11;;;;;;;;;;;;;;;-142.75;100.00;77074.25;5040629;28;19960;-81
2021/10/12 11:56:37;;;;;;;;;;;;;;;-142.75;100.00;77070.31;5022637;28;20271;-81
2021/10/12 11:59:04;;;;;;;;;;;;;;;-142.75;100.00;77090.00;5034140;28;20314;-83
2021/10/12 12:01:30;;;;;;;;;;;;;;;-142.75;100.00;77090.00;5034893;28;19917;-80
2021/10/12 12:03:56;;;;;;;;;;;;;;;-142.75;100.00;77082.13;5051529;28;19999;-80
2021/10/12 12:06:23;;;;;;;;;;;;;;;-142.75;100.00;77062.44;5023547;28;19924;-81
2021/10/12 12:08:49;;;;;;;;;;;;;;;-142.75;100.00;77062.44;5029667;28;20342;-80
2021/10/12 12:11:17;;;;;;;;;;;;;;;-142.75;100.00;77066.38;5022312;28;20280;-82
2021/10/12 12:13:42;;;;;;;;;;;;;;;-142.75;100.00;77054.56;5026957;28;19916;-83